NWS657 UNOO-URKA
Flight info
| Callsign | NWS657 |
|---|---|
| Flight time | 3h 54m |
| Altitude | 40000 |
| Route | BUNET B236 OKETI L158 ABALI T763 GITEK T691 UROBO/K0843F390 G128 MOR/K0850F400 A808 AMEPU/K0835F390 W316 RUDOL |
| Aircraft | A332/H-SDE3GHIJ2J3J5M1RVWXY/LB2D1 |
Departure
| Time | 2026-04-21 13:20 |
|---|---|
| Airport | Omsk Central Airport (UNOO) |
Arrival
| Time | 2026-04-21 17:14 |
|---|---|
| Airport | Anapa Vityazevo Airport (URKA) |
| Time | Latitude | Longitude | Altitude | Speed | Heading |
|---|---|---|---|---|---|
| 2026-04-21 12:47 | 54.96276 | 73.31891 | 312 ft | 0 kts | 137° |
| 2026-04-21 13:15 | 54.96260 | 73.31918 | 315 ft | 5 kts | 135° |
| 2026-04-21 13:15 | 54.96246 | 73.31984 | 315 ft | 7 kts | 90° |
| 2026-04-21 13:15 | 54.96267 | 73.32072 | 314 ft | 9 kts | 54° |
| 2026-04-21 13:15 | 54.96321 | 73.32154 | 314 ft | 11 kts | 37° |
| 2026-04-21 13:16 | 54.96395 | 73.32227 | 313 ft | 13 kts | 6° |
| 2026-04-21 13:16 | 54.96444 | 73.32128 | 310 ft | 12 kts | 273° |
| 2026-04-21 13:16 | 54.96429 | 73.31975 | 311 ft | 13 kts | 258° |
| 2026-04-21 13:16 | 54.96406 | 73.31798 | 312 ft | 19 kts | 257° |
| 2026-04-21 13:17 | 54.96369 | 73.31520 | 315 ft | 26 kts | 257° |
| 2026-04-21 13:17 | 54.96327 | 73.31207 | 315 ft | 27 kts | 257° |
| 2026-04-21 13:17 | 54.96285 | 73.30887 | 316 ft | 27 kts | 257° |
| 2026-04-21 13:17 | 54.96242 | 73.30564 | 318 ft | 28 kts | 257° |
| 2026-04-21 13:18 | 54.96197 | 73.30231 | 319 ft | 29 kts | 257° |
| 2026-04-21 13:18 | 54.96152 | 73.29891 | 321 ft | 29 kts | 257° |
| 2026-04-21 13:18 | 54.96106 | 73.29547 | 321 ft | 29 kts | 257° |
| 2026-04-21 13:18 | 54.96087 | 73.29331 | 321 ft | 13 kts | 288° |
| 2026-04-21 13:19 | 54.96166 | 73.29251 | 321 ft | 13 kts | 345° |
| 2026-04-21 13:19 | 54.96262 | 73.29215 | 322 ft | 15 kts | 348° |
| 2026-04-21 13:19 | 54.96371 | 73.29173 | 321 ft | 17 kts | 347° |
| 2026-04-21 13:19 | 54.96466 | 73.29213 | 324 ft | 15 kts | 65° |
| 2026-04-21 13:20 | 54.96498 | 73.29420 | 324 ft | 28 kts | 78° |
| 2026-04-21 13:20 | 54.96597 | 73.30139 | 319 ft | 95 kts | 76° |
| 2026-04-21 13:20 | 54.96798 | 73.31626 | 322 ft | 155 kts | 76° |
| 2026-04-21 13:20 | 54.97046 | 73.33487 | 1086 ft | 157 kts | 77° |
| 2026-04-21 13:21 | 54.97294 | 73.35345 | 1935 ft | 162 kts | 77° |
| 2026-04-21 13:21 | 54.97569 | 73.37407 | 2369 ft | 189 kts | 77° |
| 2026-04-21 13:21 | 54.97886 | 73.39796 | 2756 ft | 218 kts | 78° |
| 2026-04-21 13:21 | 54.98248 | 73.42523 | 3110 ft | 246 kts | 78° |
| 2026-04-21 13:22 | 54.98645 | 73.45508 | 3830 ft | 258 kts | 78° |
| 2026-04-21 13:22 | 54.99049 | 73.48581 | 4694 ft | 264 kts | 78° |
| 2026-04-21 13:22 | 54.99478 | 73.51731 | 5576 ft | 270 kts | 76° |
| 2026-04-21 13:22 | 55.00298 | 73.54733 | 6423 ft | 280 kts | 53° |
| 2026-04-21 13:23 | 55.01839 | 73.56839 | 7307 ft | 288 kts | 22° |
| 2026-04-21 13:23 | 55.03803 | 73.57367 | 8257 ft | 288 kts | 352° |
| 2026-04-21 13:23 | 55.05662 | 73.56169 | 9215 ft | 285 kts | 322° |
| 2026-04-21 13:23 | 55.06948 | 73.53649 | 10145 ft | 283 kts | 297° |
| 2026-04-21 13:24 | 55.07851 | 73.50490 | 10662 ft | 300 kts | 291° |
| 2026-04-21 13:24 | 55.08697 | 73.47051 | 11249 ft | 314 kts | 290° |
| 2026-04-21 13:24 | 55.09564 | 73.43519 | 12073 ft | 319 kts | 290° |
| 2026-04-21 13:24 | 55.10454 | 73.39954 | 12976 ft | 320 kts | 291° |
| 2026-04-21 13:25 | 55.11357 | 73.36375 | 13796 ft | 323 kts | 291° |
| 2026-04-21 13:25 | 55.12261 | 73.32803 | 14599 ft | 326 kts | 291° |
| 2026-04-21 13:25 | 55.13187 | 73.29155 | 15383 ft | 330 kts | 291° |
| 2026-04-21 13:25 | 55.14068 | 73.25435 | 16137 ft | 333 kts | 286° |
| 2026-04-21 13:26 | 55.14572 | 73.21474 | 16893 ft | 335 kts | 278° |
| 2026-04-21 13:26 | 55.14826 | 73.17410 | 17611 ft | 338 kts | 274° |
| 2026-04-21 13:26 | 55.14948 | 73.13278 | 18312 ft | 342 kts | 272° |
| 2026-04-21 13:26 | 55.15018 | 73.09102 | 19002 ft | 345 kts | 271° |
| 2026-04-21 13:27 | 55.15083 | 73.04889 | 19688 ft | 348 kts | 272° |
| 2026-04-21 13:27 | 55.15163 | 73.00637 | 20327 ft | 351 kts | 272° |
| 2026-04-21 13:27 | 55.15260 | 72.96349 | 20954 ft | 354 kts | 272° |
| 2026-04-21 13:27 | 55.15374 | 72.92022 | 21562 ft | 357 kts | 272° |
| 2026-04-21 13:28 | 55.15499 | 72.87666 | 22159 ft | 360 kts | 272° |
| 2026-04-21 13:28 | 55.15629 | 72.83267 | 22751 ft | 362 kts | 272° |
| 2026-04-21 13:28 | 55.15758 | 72.78908 | 23307 ft | 365 kts | 272° |
| 2026-04-21 13:28 | 55.15944 | 72.74467 | 23868 ft | 367 kts | 276° |
| 2026-04-21 13:29 | 55.16431 | 72.70057 | 24394 ft | 371 kts | 284° |
| 2026-04-21 13:29 | 55.17309 | 72.65782 | 24899 ft | 376 kts | 292° |
| 2026-04-21 13:29 | 55.18448 | 72.61639 | 25417 ft | 379 kts | 294° |
| 2026-04-21 13:29 | 55.19691 | 72.57546 | 25901 ft | 382 kts | 296° |
| 2026-04-21 13:30 | 55.20988 | 72.53480 | 26375 ft | 384 kts | 296° |
| 2026-04-21 13:30 | 55.22314 | 72.49395 | 26851 ft | 386 kts | 297° |
| 2026-04-21 13:30 | 55.23647 | 72.45285 | 27298 ft | 389 kts | 296° |
| 2026-04-21 13:30 | 55.24981 | 72.41140 | 27760 ft | 390 kts | 296° |
| 2026-04-21 13:31 | 55.26309 | 72.36975 | 28204 ft | 392 kts | 296° |
| 2026-04-21 13:31 | 55.27635 | 72.32781 | 28628 ft | 394 kts | 295° |
| 2026-04-21 13:31 | 55.28964 | 72.28554 | 29037 ft | 397 kts | 295° |
| 2026-04-21 13:31 | 55.30298 | 72.24298 | 29506 ft | 397 kts | 295° |
| 2026-04-21 13:32 | 55.31613 | 72.20093 | 29912 ft | 399 kts | 295° |
| 2026-04-21 13:32 | 55.32952 | 72.15802 | 30303 ft | 401 kts | 295° |
| 2026-04-21 13:32 | 55.34295 | 72.11490 | 30686 ft | 403 kts | 295° |
| 2026-04-21 13:32 | 55.35647 | 72.07149 | 31040 ft | 406 kts | 295° |
| 2026-04-21 13:33 | 55.37006 | 72.02776 | 31381 ft | 409 kts | 295° |
| 2026-04-21 13:33 | 55.38370 | 71.98376 | 31762 ft | 411 kts | 295° |
| 2026-04-21 13:33 | 55.39743 | 71.93939 | 32081 ft | 413 kts | 294° |
| 2026-04-21 13:33 | 55.41118 | 71.89488 | 32497 ft | 414 kts | 294° |
| 2026-04-21 13:34 | 55.42490 | 71.85047 | 32954 ft | 412 kts | 294° |
| 2026-04-21 13:34 | 55.43853 | 71.80620 | 33427 ft | 410 kts | 294° |
| 2026-04-21 13:34 | 55.45210 | 71.76205 | 33883 ft | 408 kts | 294° |
| 2026-04-21 13:34 | 55.46544 | 71.71857 | 34278 ft | 408 kts | 293° |
| 2026-04-21 13:35 | 55.47890 | 71.67459 | 34675 ft | 407 kts | 294° |
| 2026-04-21 13:35 | 55.49229 | 71.63072 | 35048 ft | 407 kts | 294° |
| 2026-04-21 13:35 | 55.50571 | 71.58669 | 35392 ft | 407 kts | 294° |
| 2026-04-21 13:35 | 55.51908 | 71.54273 | 35734 ft | 407 kts | 294° |
| 2026-04-21 13:36 | 55.53247 | 71.49868 | 36059 ft | 407 kts | 294° |
| 2026-04-21 13:36 | 55.54582 | 71.45462 | 36344 ft | 408 kts | 294° |
| 2026-04-21 13:36 | 55.55923 | 71.41031 | 36617 ft | 409 kts | 294° |
| 2026-04-21 13:36 | 55.57262 | 71.36598 | 36912 ft | 408 kts | 294° |
| 2026-04-21 13:37 | 55.58595 | 71.32181 | 37296 ft | 406 kts | 294° |
| 2026-04-21 13:37 | 55.59803 | 71.27704 | 37657 ft | 401 kts | 288° |
| 2026-04-21 13:37 | 55.60692 | 71.23057 | 37982 ft | 397 kts | 282° |
| 2026-04-21 13:37 | 55.61213 | 71.18287 | 38270 ft | 395 kts | 274° |
| 2026-04-21 13:38 | 55.61366 | 71.13444 | 38506 ft | 394 kts | 269° |
| 2026-04-21 13:38 | 55.61358 | 71.08588 | 38710 ft | 395 kts | 268° |
| 2026-04-21 13:38 | 55.61281 | 71.03719 | 38935 ft | 396 kts | 267° |
| 2026-04-21 13:38 | 55.61173 | 70.98834 | 39143 ft | 397 kts | 267° |
| 2026-04-21 13:39 | 55.61055 | 70.93950 | 39335 ft | 398 kts | 267° |
| 2026-04-21 13:39 | 55.60939 | 70.89117 | 39557 ft | 398 kts | 267° |
| 2026-04-21 13:39 | 55.60825 | 70.84220 | 39758 ft | 399 kts | 267° |
| 2026-04-21 13:39 | 55.60717 | 70.79298 | 39845 ft | 403 kts | 267° |
| 2026-04-21 13:40 | 55.60503 | 70.69290 | 39829 ft | 409 kts | 267° |
| 2026-04-21 13:40 | 55.60285 | 70.59240 | 39829 ft | 408 kts | 267° |
| 2026-04-21 13:41 | 55.60058 | 70.49203 | 39831 ft | 408 kts | 267° |
| 2026-04-21 13:41 | 55.59823 | 70.39174 | 39812 ft | 408 kts | 267° |
| 2026-04-21 13:42 | 55.59579 | 70.29144 | 39812 ft | 408 kts | 267° |
| 2026-04-21 13:42 | 55.59323 | 70.19093 | 39813 ft | 408 kts | 266° |
| 2026-04-21 13:43 | 55.59063 | 70.09130 | 39812 ft | 408 kts | 266° |
| 2026-04-21 13:43 | 55.58795 | 69.99039 | 39804 ft | 408 kts | 266° |
| 2026-04-21 13:44 | 55.58519 | 69.89057 | 39804 ft | 409 kts | 266° |
| 2026-04-21 13:44 | 55.58233 | 69.79014 | 39805 ft | 410 kts | 266° |
| 2026-04-21 13:45 | 55.57939 | 69.68957 | 39804 ft | 410 kts | 266° |
| 2026-04-21 13:45 | 55.57636 | 69.58887 | 39796 ft | 409 kts | 266° |
| 2026-04-21 13:46 | 55.57325 | 69.48838 | 39787 ft | 409 kts | 266° |
| 2026-04-21 13:46 | 55.57008 | 69.38838 | 39785 ft | 409 kts | 266° |
| 2026-04-21 13:47 | 55.56680 | 69.28790 | 39786 ft | 410 kts | 266° |
| 2026-04-21 13:47 | 55.56358 | 69.18721 | 39785 ft | 410 kts | 266° |
| 2026-04-21 13:48 | 55.56194 | 69.08628 | 39786 ft | 411 kts | 268° |
| 2026-04-21 13:48 | 55.56113 | 69.00183 | 39785 ft | 410 kts | 268° |
| 2026-04-21 13:49 | 55.56009 | 68.90159 | 39785 ft | 411 kts | 268° |
| 2026-04-21 13:49 | 55.55879 | 68.80065 | 39785 ft | 411 kts | 267° |
| 2026-04-21 13:50 | 55.55732 | 68.69965 | 39785 ft | 411 kts | 267° |
| 2026-04-21 13:50 | 55.55575 | 68.59874 | 39786 ft | 411 kts | 267° |
| 2026-04-21 13:51 | 55.55414 | 68.49787 | 39785 ft | 411 kts | 267° |
| 2026-04-21 13:51 | 55.55243 | 68.39685 | 39785 ft | 411 kts | 267° |
| 2026-04-21 13:52 | 55.55064 | 68.29578 | 39786 ft | 411 kts | 267° |
| 2026-04-21 13:52 | 55.54877 | 68.19483 | 39787 ft | 411 kts | 266° |
| 2026-04-21 13:53 | 55.54680 | 68.09385 | 39795 ft | 411 kts | 266° |
| 2026-04-21 13:53 | 55.54004 | 67.99378 | 39796 ft | 410 kts | 257° |
| 2026-04-21 13:54 | 55.52576 | 67.89704 | 39795 ft | 410 kts | 254° |
| 2026-04-21 13:54 | 55.50986 | 67.80019 | 39795 ft | 410 kts | 253° |
| 2026-04-21 13:55 | 55.49370 | 67.70337 | 39794 ft | 411 kts | 253° |
| 2026-04-21 13:55 | 55.47764 | 67.60671 | 39794 ft | 411 kts | 253° |
| 2026-04-21 13:56 | 55.46165 | 67.51045 | 39795 ft | 411 kts | 253° |
| 2026-04-21 13:56 | 55.44551 | 67.41367 | 39795 ft | 412 kts | 253° |
| 2026-04-21 13:57 | 55.42926 | 67.31689 | 39795 ft | 412 kts | 253° |
| 2026-04-21 13:57 | 55.41294 | 67.22019 | 39794 ft | 412 kts | 253° |
| 2026-04-21 13:58 | 55.39656 | 67.12359 | 39803 ft | 413 kts | 253° |
| 2026-04-21 13:58 | 55.38011 | 67.02715 | 39804 ft | 413 kts | 253° |
| 2026-04-21 13:59 | 55.36352 | 66.93045 | 39803 ft | 413 kts | 253° |
| 2026-04-21 13:59 | 55.34695 | 66.83431 | 39804 ft | 413 kts | 253° |
| 2026-04-21 14:00 | 55.33018 | 66.73759 | 39803 ft | 414 kts | 253° |
| 2026-04-21 14:00 | 55.31333 | 66.64090 | 39803 ft | 414 kts | 252° |
| 2026-04-21 14:01 | 55.29639 | 66.54424 | 39805 ft | 414 kts | 252° |
| 2026-04-21 14:01 | 55.27934 | 66.44753 | 39805 ft | 414 kts | 252° |
| 2026-04-21 14:02 | 55.26225 | 66.35102 | 39804 ft | 414 kts | 252° |
| 2026-04-21 14:03 | 55.23657 | 66.20695 | 39803 ft | 414 kts | 252° |
| 2026-04-21 14:03 | 55.21929 | 66.11069 | 39803 ft | 414 kts | 252° |
| 2026-04-21 14:04 | 55.20194 | 66.01443 | 39805 ft | 414 kts | 252° |
| 2026-04-21 14:04 | 55.18449 | 65.91820 | 39804 ft | 415 kts | 252° |
| 2026-04-21 14:05 | 55.16692 | 65.82186 | 39805 ft | 416 kts | 252° |
| 2026-04-21 14:05 | 55.14922 | 65.72546 | 39804 ft | 416 kts | 251° |
| 2026-04-21 14:06 | 55.13128 | 65.62998 | 39804 ft | 416 kts | 251° |
| 2026-04-21 14:06 | 55.11303 | 65.53403 | 39803 ft | 416 kts | 251° |
| 2026-04-21 14:07 | 55.09470 | 65.43814 | 39800 ft | 416 kts | 251° |
| 2026-04-21 14:07 | 55.07635 | 65.34255 | 39794 ft | 416 kts | 251° |
| 2026-04-21 14:08 | 55.05791 | 65.24669 | 39782 ft | 416 kts | 251° |
| 2026-04-21 14:08 | 55.03938 | 65.15098 | 39757 ft | 416 kts | 251° |
| 2026-04-21 14:09 | 55.02074 | 65.05513 | 39757 ft | 416 kts | 251° |
| 2026-04-21 14:09 | 55.00209 | 64.95975 | 39757 ft | 416 kts | 251° |
| 2026-04-21 14:10 | 54.98348 | 64.86485 | 39757 ft | 417 kts | 250° |
| 2026-04-21 14:10 | 54.96469 | 64.76940 | 39748 ft | 417 kts | 250° |
| 2026-04-21 14:11 | 54.94583 | 64.67408 | 39748 ft | 416 kts | 250° |
| 2026-04-21 14:11 | 54.92690 | 64.57878 | 39748 ft | 417 kts | 250° |
| 2026-04-21 14:12 | 54.90782 | 64.48327 | 39748 ft | 418 kts | 250° |
| 2026-04-21 14:12 | 54.88866 | 64.38790 | 39740 ft | 418 kts | 250° |
| 2026-04-21 14:13 | 54.86954 | 64.29314 | 39739 ft | 418 kts | 250° |
| 2026-04-21 14:13 | 54.85022 | 64.19782 | 39729 ft | 418 kts | 250° |
| 2026-04-21 14:14 | 54.83084 | 64.10276 | 39730 ft | 418 kts | 250° |
| 2026-04-21 14:14 | 54.81139 | 64.00768 | 39729 ft | 418 kts | 250° |
| 2026-04-21 14:15 | 54.79184 | 63.91274 | 39729 ft | 417 kts | 250° |
| 2026-04-21 14:15 | 54.77238 | 63.81847 | 39731 ft | 418 kts | 249° |
| 2026-04-21 14:16 | 54.75268 | 63.72363 | 39727 ft | 418 kts | 249° |
| 2026-04-21 14:16 | 54.73290 | 63.62876 | 39721 ft | 418 kts | 249° |
| 2026-04-21 14:17 | 54.71307 | 63.53412 | 39719 ft | 418 kts | 249° |
| 2026-04-21 14:17 | 54.69313 | 63.43943 | 39721 ft | 419 kts | 249° |
| 2026-04-21 14:18 | 54.67313 | 63.34497 | 39722 ft | 419 kts | 249° |
| 2026-04-21 14:18 | 54.65319 | 63.25114 | 39722 ft | 419 kts | 249° |
| 2026-04-21 14:19 | 54.63308 | 63.15671 | 39710 ft | 418 kts | 249° |
| 2026-04-21 14:19 | 54.61301 | 63.06266 | 39711 ft | 418 kts | 249° |
| 2026-04-21 14:20 | 54.59285 | 62.96854 | 39710 ft | 418 kts | 249° |
| 2026-04-21 14:20 | 54.57265 | 62.87465 | 39712 ft | 418 kts | 249° |
| 2026-04-21 14:21 | 54.55235 | 62.78074 | 39711 ft | 418 kts | 249° |
| 2026-04-21 14:21 | 54.53197 | 62.68692 | 39710 ft | 418 kts | 249° |
| 2026-04-21 14:22 | 54.51160 | 62.59365 | 39712 ft | 418 kts | 248° |
| 2026-04-21 14:22 | 54.49110 | 62.50016 | 39713 ft | 417 kts | 248° |
| 2026-04-21 14:23 | 54.47054 | 62.40680 | 39695 ft | 417 kts | 248° |
| 2026-04-21 14:23 | 54.45167 | 62.31241 | 39711 ft | 418 kts | 255° |
| 2026-04-21 14:24 | 54.44081 | 62.21415 | 39712 ft | 419 kts | 258° |
| 2026-04-21 14:24 | 54.43172 | 62.11521 | 39712 ft | 420 kts | 259° |
| 2026-04-21 14:25 | 54.42290 | 62.01659 | 39712 ft | 419 kts | 259° |
| 2026-04-21 14:25 | 54.41381 | 61.91768 | 39712 ft | 419 kts | 259° |
| 2026-04-21 14:26 | 54.40449 | 61.81903 | 39710 ft | 418 kts | 258° |
| 2026-04-21 14:26 | 54.39503 | 61.72034 | 39714 ft | 419 kts | 258° |
| 2026-04-21 14:27 | 54.38551 | 61.62169 | 39712 ft | 419 kts | 258° |
| 2026-04-21 14:27 | 54.37596 | 61.52351 | 39711 ft | 420 kts | 258° |
| 2026-04-21 14:28 | 54.36626 | 61.42471 | 39695 ft | 420 kts | 258° |
| 2026-04-21 14:28 | 54.35650 | 61.32590 | 39707 ft | 420 kts | 258° |
| 2026-04-21 14:29 | 54.34665 | 61.22714 | 39704 ft | 420 kts | 258° |
| 2026-04-21 14:29 | 54.33672 | 61.12856 | 39698 ft | 420 kts | 258° |
| 2026-04-21 14:30 | 54.32668 | 61.02988 | 39713 ft | 420 kts | 258° |
| 2026-04-21 14:30 | 54.31664 | 60.93191 | 39709 ft | 420 kts | 258° |
| 2026-04-21 14:31 | 54.30644 | 60.83311 | 39712 ft | 420 kts | 258° |
| 2026-04-21 14:31 | 54.29618 | 60.73460 | 39713 ft | 420 kts | 258° |
| 2026-04-21 14:32 | 54.28583 | 60.63596 | 39710 ft | 421 kts | 258° |
| 2026-04-21 14:32 | 54.27538 | 60.53730 | 39721 ft | 421 kts | 257° |
| 2026-04-21 14:33 | 54.26491 | 60.43888 | 39709 ft | 421 kts | 257° |
| 2026-04-21 14:33 | 54.25431 | 60.34044 | 39710 ft | 421 kts | 257° |
| 2026-04-21 14:34 | 54.24362 | 60.24221 | 39712 ft | 420 kts | 257° |
| 2026-04-21 14:34 | 54.23290 | 60.14451 | 39709 ft | 420 kts | 257° |
| 2026-04-21 14:35 | 54.22208 | 60.04624 | 39718 ft | 420 kts | 257° |
| 2026-04-21 14:35 | 54.21305 | 59.96468 | 39713 ft | 420 kts | 257° |
| 2026-04-21 14:36 | 54.20210 | 59.86657 | 39713 ft | 420 kts | 257° |
| 2026-04-21 14:36 | 54.19103 | 59.76836 | 39712 ft | 420 kts | 257° |
| 2026-04-21 14:37 | 54.18247 | 59.69287 | 39715 ft | 420 kts | 257° |
| 2026-04-21 14:37 | 54.17128 | 59.59498 | 39718 ft | 420 kts | 257° |
| 2026-04-21 14:38 | 54.16007 | 59.49763 | 39720 ft | 421 kts | 257° |
| 2026-04-21 14:38 | 54.14869 | 59.39955 | 39720 ft | 422 kts | 257° |
| 2026-04-21 14:39 | 54.13725 | 59.30147 | 39721 ft | 422 kts | 257° |
| 2026-04-21 14:39 | 54.12570 | 59.20335 | 39721 ft | 422 kts | 256° |
| 2026-04-21 14:40 | 54.11409 | 59.10535 | 39719 ft | 422 kts | 256° |
| 2026-04-21 14:40 | 54.10236 | 59.00707 | 39721 ft | 423 kts | 256° |
| 2026-04-21 14:41 | 54.09060 | 58.90937 | 39719 ft | 423 kts | 256° |
| 2026-04-21 14:41 | 54.07869 | 58.81108 | 39722 ft | 423 kts | 256° |
| 2026-04-21 14:42 | 54.06669 | 58.71287 | 39721 ft | 423 kts | 256° |
| 2026-04-21 14:42 | 54.05463 | 58.61489 | 39719 ft | 423 kts | 256° |
| 2026-04-21 14:43 | 54.04249 | 58.51687 | 39721 ft | 423 kts | 256° |
| 2026-04-21 14:43 | 54.03042 | 58.41960 | 39736 ft | 422 kts | 256° |
| 2026-04-21 14:44 | 54.01842 | 58.32182 | 39747 ft | 422 kts | 256° |
| 2026-04-21 14:44 | 54.00640 | 58.22425 | 39748 ft | 422 kts | 256° |
| 2026-04-21 14:45 | 53.99427 | 58.12662 | 39748 ft | 422 kts | 256° |
| 2026-04-21 14:45 | 53.98210 | 58.02911 | 39749 ft | 422 kts | 256° |
| 2026-04-21 14:46 | 53.96982 | 57.93163 | 39749 ft | 422 kts | 256° |
| 2026-04-21 14:46 | 53.95743 | 57.83424 | 39748 ft | 422 kts | 256° |
| 2026-04-21 14:47 | 53.94506 | 57.73749 | 39748 ft | 422 kts | 255° |
| 2026-04-21 14:47 | 53.93254 | 57.64025 | 39749 ft | 422 kts | 255° |
| 2026-04-21 14:48 | 53.91994 | 57.54298 | 39748 ft | 422 kts | 255° |
| 2026-04-21 14:48 | 53.90728 | 57.44589 | 39748 ft | 421 kts | 255° |
| 2026-04-21 14:49 | 53.89453 | 57.34900 | 39757 ft | 421 kts | 255° |
| 2026-04-21 14:49 | 53.88169 | 57.25191 | 39756 ft | 421 kts | 255° |
| 2026-04-21 14:50 | 53.87096 | 57.17154 | 39757 ft | 421 kts | 255° |
| 2026-04-21 14:50 | 53.85580 | 57.05905 | 39757 ft | 421 kts | 255° |
| 2026-04-21 14:51 | 53.84273 | 56.96234 | 39761 ft | 421 kts | 255° |
| 2026-04-21 14:51 | 53.82958 | 56.86570 | 39758 ft | 421 kts | 254° |
| 2026-04-21 14:52 | 53.81634 | 56.76906 | 39758 ft | 421 kts | 254° |
| 2026-04-21 14:52 | 53.80315 | 56.67323 | 39758 ft | 421 kts | 254° |
| 2026-04-21 14:53 | 53.78980 | 56.57680 | 39756 ft | 420 kts | 254° |
| 2026-04-21 14:53 | 53.77636 | 56.48048 | 39757 ft | 421 kts | 254° |
| 2026-04-21 14:54 | 53.76284 | 56.38425 | 39766 ft | 421 kts | 254° |
| 2026-04-21 14:54 | 53.74930 | 56.28840 | 39767 ft | 421 kts | 253° |
| 2026-04-21 14:55 | 53.73562 | 56.19224 | 39766 ft | 421 kts | 253° |
| 2026-04-21 14:55 | 53.72186 | 56.09591 | 39767 ft | 421 kts | 253° |
| 2026-04-21 14:56 | 53.70798 | 55.99964 | 39766 ft | 422 kts | 253° |
| 2026-04-21 14:56 | 53.69404 | 55.90344 | 39767 ft | 422 kts | 253° |
| 2026-04-21 14:57 | 53.68002 | 55.80730 | 39767 ft | 422 kts | 253° |
| 2026-04-21 14:57 | 53.66602 | 55.71186 | 39766 ft | 422 kts | 253° |
| 2026-04-21 14:58 | 53.65184 | 55.61582 | 39766 ft | 422 kts | 253° |
| 2026-04-21 14:58 | 53.63761 | 55.51992 | 39767 ft | 422 kts | 253° |
| 2026-04-21 14:59 | 53.62329 | 55.42395 | 39767 ft | 422 kts | 253° |
| 2026-04-21 14:59 | 53.60887 | 55.32798 | 39767 ft | 422 kts | 253° |
| 2026-04-21 15:00 | 53.59447 | 55.23280 | 39768 ft | 422 kts | 253° |
| 2026-04-21 15:00 | 53.57992 | 55.13712 | 39767 ft | 422 kts | 253° |
| 2026-04-21 15:01 | 53.56528 | 55.04148 | 39783 ft | 422 kts | 253° |
| 2026-04-21 15:01 | 53.55053 | 54.94562 | 39785 ft | 423 kts | 253° |
| 2026-04-21 15:02 | 53.53569 | 54.84970 | 39787 ft | 423 kts | 253° |
| 2026-04-21 15:02 | 53.52077 | 54.75383 | 39795 ft | 424 kts | 253° |
| 2026-04-21 15:03 | 53.50573 | 54.65794 | 39795 ft | 424 kts | 253° |
| 2026-04-21 15:03 | 53.49063 | 54.56207 | 39794 ft | 425 kts | 253° |
| 2026-04-21 15:04 | 53.47552 | 54.46678 | 39795 ft | 425 kts | 252° |
| 2026-04-21 15:04 | 53.46024 | 54.37077 | 39795 ft | 426 kts | 252° |
| 2026-04-21 15:05 | 53.44483 | 54.27464 | 39795 ft | 427 kts | 252° |
| 2026-04-21 15:05 | 53.42157 | 54.13056 | 39804 ft | 427 kts | 252° |
| 2026-04-21 15:06 | 53.40605 | 54.03498 | 39805 ft | 427 kts | 252° |
| 2026-04-21 15:06 | 53.39041 | 53.93916 | 39804 ft | 427 kts | 252° |
| 2026-04-21 15:07 | 53.37463 | 53.84317 | 39803 ft | 428 kts | 252° |
| 2026-04-21 15:07 | 53.35834 | 53.74722 | 39804 ft | 427 kts | 251° |
| 2026-04-21 15:08 | 53.34042 | 53.65244 | 39804 ft | 427 kts | 250° |
| 2026-04-21 15:08 | 53.32199 | 53.55816 | 39803 ft | 426 kts | 250° |
| 2026-04-21 15:09 | 53.30361 | 53.46385 | 39804 ft | 426 kts | 250° |
| 2026-04-21 15:09 | 53.28530 | 53.36967 | 39809 ft | 426 kts | 250° |
| 2026-04-21 15:10 | 53.26697 | 53.27558 | 39811 ft | 426 kts | 250° |
| 2026-04-21 15:10 | 53.24872 | 53.18237 | 39812 ft | 425 kts | 250° |
| 2026-04-21 15:11 | 53.23024 | 53.08849 | 39811 ft | 425 kts | 250° |
| 2026-04-21 15:11 | 53.21172 | 52.99481 | 39824 ft | 425 kts | 250° |
| 2026-04-21 15:12 | 53.19311 | 52.90127 | 39805 ft | 425 kts | 250° |
| 2026-04-21 15:12 | 53.17444 | 52.80772 | 39812 ft | 425 kts | 250° |
| 2026-04-21 15:13 | 53.15573 | 52.71435 | 39813 ft | 425 kts | 250° |
| 2026-04-21 15:13 | 53.13688 | 52.62094 | 39826 ft | 425 kts | 250° |
| 2026-04-21 15:14 | 53.11800 | 52.52768 | 39840 ft | 425 kts | 250° |
| 2026-04-21 15:14 | 53.09902 | 52.43442 | 39842 ft | 426 kts | 250° |
| 2026-04-21 15:15 | 53.07994 | 52.34114 | 39839 ft | 426 kts | 250° |
| 2026-04-21 15:15 | 53.06079 | 52.24796 | 39846 ft | 426 kts | 250° |
| 2026-04-21 15:16 | 53.04153 | 52.15480 | 39845 ft | 426 kts | 250° |
| 2026-04-21 15:16 | 53.02223 | 52.06169 | 39838 ft | 426 kts | 250° |
| 2026-04-21 15:17 | 53.00290 | 51.96884 | 39820 ft | 425 kts | 250° |
| 2026-04-21 15:17 | 52.98344 | 51.87597 | 39813 ft | 427 kts | 250° |
| 2026-04-21 15:18 | 52.96402 | 51.78364 | 39828 ft | 427 kts | 250° |
| 2026-04-21 15:18 | 52.94439 | 51.69069 | 39819 ft | 427 kts | 250° |
| 2026-04-21 15:19 | 52.92467 | 51.59783 | 39828 ft | 427 kts | 249° |
| 2026-04-21 15:19 | 52.90490 | 51.50508 | 39827 ft | 427 kts | 250° |
| 2026-04-21 15:20 | 52.88507 | 51.41251 | 39827 ft | 427 kts | 249° |
| 2026-04-21 15:20 | 52.86515 | 51.31997 | 39816 ft | 427 kts | 249° |
| 2026-04-21 15:21 | 52.84515 | 51.22751 | 39824 ft | 427 kts | 249° |
| 2026-04-21 15:21 | 52.82512 | 51.13519 | 39822 ft | 427 kts | 249° |
| 2026-04-21 15:22 | 52.80498 | 51.04286 | 39829 ft | 427 kts | 249° |
| 2026-04-21 15:22 | 52.78476 | 50.95057 | 39816 ft | 428 kts | 249° |
| 2026-04-21 15:23 | 52.76787 | 50.87384 | 39817 ft | 428 kts | 249° |
| 2026-04-21 15:23 | 52.74750 | 50.78156 | 39831 ft | 427 kts | 249° |
| 2026-04-21 15:24 | 52.72704 | 50.68950 | 39815 ft | 427 kts | 249° |
| 2026-04-21 15:24 | 52.70654 | 50.59755 | 39816 ft | 427 kts | 249° |
| 2026-04-21 15:25 | 52.68595 | 50.50559 | 39819 ft | 427 kts | 249° |
| 2026-04-21 15:25 | 52.66529 | 50.41382 | 39827 ft | 427 kts | 249° |
| 2026-04-21 15:26 | 52.64457 | 50.32223 | 39817 ft | 426 kts | 249° |
| 2026-04-21 15:26 | 52.62382 | 50.23093 | 39817 ft | 426 kts | 249° |
| 2026-04-21 15:27 | 52.60297 | 50.13966 | 39831 ft | 426 kts | 249° |
| 2026-04-21 15:27 | 52.58205 | 50.04845 | 39825 ft | 426 kts | 249° |
| 2026-04-21 15:28 | 52.55518 | 49.96208 | 39814 ft | 426 kts | 235° |
| 2026-04-21 15:28 | 52.51921 | 49.88482 | 39823 ft | 426 kts | 232° |
| 2026-04-21 15:29 | 52.48146 | 49.80971 | 39824 ft | 427 kts | 231° |
| 2026-04-21 15:29 | 52.44348 | 49.73501 | 39836 ft | 426 kts | 231° |
| 2026-04-21 15:30 | 52.40587 | 49.66073 | 39827 ft | 427 kts | 231° |
| 2026-04-21 15:30 | 52.36808 | 49.58590 | 39832 ft | 427 kts | 231° |
| 2026-04-21 15:31 | 52.33021 | 49.51111 | 39830 ft | 427 kts | 231° |
| 2026-04-21 15:31 | 52.29232 | 49.43649 | 39823 ft | 426 kts | 231° |
| 2026-04-21 15:32 | 52.25438 | 49.36200 | 39844 ft | 427 kts | 231° |
| 2026-04-21 15:32 | 52.21637 | 49.28755 | 39843 ft | 427 kts | 231° |
| 2026-04-21 15:33 | 52.17827 | 49.21313 | 39843 ft | 428 kts | 231° |
| 2026-04-21 15:33 | 52.14009 | 49.13881 | 39843 ft | 428 kts | 231° |
| 2026-04-21 15:34 | 52.10185 | 49.06463 | 39849 ft | 428 kts | 231° |
| 2026-04-21 15:34 | 52.06357 | 48.99054 | 39847 ft | 428 kts | 231° |
| 2026-04-21 15:35 | 52.02521 | 48.91648 | 39847 ft | 429 kts | 231° |
| 2026-04-21 15:35 | 51.98675 | 48.84238 | 39851 ft | 429 kts | 231° |
| 2026-04-21 15:36 | 51.94838 | 48.76884 | 39855 ft | 426 kts | 231° |
| 2026-04-21 15:36 | 51.91005 | 48.69565 | 39859 ft | 426 kts | 231° |
| 2026-04-21 15:37 | 51.87170 | 48.62261 | 39859 ft | 426 kts | 231° |
| 2026-04-21 15:37 | 51.83328 | 48.54965 | 39861 ft | 426 kts | 230° |
| 2026-04-21 15:38 | 51.79485 | 48.47683 | 39862 ft | 426 kts | 231° |
| 2026-04-21 15:38 | 51.75662 | 48.40460 | 39868 ft | 426 kts | 230° |
| 2026-04-21 15:39 | 51.71804 | 48.33199 | 39881 ft | 427 kts | 230° |
| 2026-04-21 15:39 | 51.67937 | 48.25947 | 39888 ft | 427 kts | 230° |
| 2026-04-21 15:40 | 51.64056 | 48.18687 | 39889 ft | 428 kts | 230° |
| 2026-04-21 15:40 | 51.60174 | 48.11445 | 39892 ft | 427 kts | 230° |
| 2026-04-21 15:41 | 51.56286 | 48.04218 | 39897 ft | 427 kts | 230° |
| 2026-04-21 15:41 | 51.52399 | 47.97008 | 39897 ft | 427 kts | 230° |
| 2026-04-21 15:42 | 51.48504 | 47.89809 | 39897 ft | 427 kts | 230° |
| 2026-04-21 15:42 | 51.44604 | 47.82617 | 39897 ft | 428 kts | 230° |
| 2026-04-21 15:43 | 51.40695 | 47.75426 | 39897 ft | 428 kts | 230° |
| 2026-04-21 15:43 | 51.36783 | 47.68251 | 39897 ft | 428 kts | 230° |
| 2026-04-21 15:44 | 51.32867 | 47.61090 | 39897 ft | 428 kts | 230° |
| 2026-04-21 15:44 | 51.28945 | 47.53943 | 39897 ft | 428 kts | 230° |
| 2026-04-21 15:45 | 51.25020 | 47.46807 | 39899 ft | 428 kts | 229° |
| 2026-04-21 15:45 | 51.21088 | 47.39680 | 39905 ft | 428 kts | 229° |
| 2026-04-21 15:46 | 51.17150 | 47.32561 | 39906 ft | 428 kts | 229° |
| 2026-04-21 15:46 | 51.13207 | 47.25452 | 39906 ft | 428 kts | 229° |
| 2026-04-21 15:47 | 51.09254 | 47.18347 | 39905 ft | 428 kts | 229° |
| 2026-04-21 15:47 | 51.05302 | 47.11263 | 39906 ft | 428 kts | 229° |
| 2026-04-21 15:48 | 51.01373 | 47.04239 | 39906 ft | 428 kts | 229° |
| 2026-04-21 15:48 | 50.97411 | 46.97169 | 39905 ft | 428 kts | 229° |
| 2026-04-21 15:49 | 50.93439 | 46.90111 | 39906 ft | 429 kts | 229° |
| 2026-04-21 15:49 | 50.89464 | 46.83062 | 39906 ft | 429 kts | 229° |
| 2026-04-21 15:50 | 50.85480 | 46.76018 | 39906 ft | 429 kts | 229° |
| 2026-04-21 15:50 | 50.81487 | 46.68986 | 39906 ft | 429 kts | 229° |
| 2026-04-21 15:51 | 50.77499 | 46.61970 | 39906 ft | 429 kts | 229° |
| 2026-04-21 15:51 | 50.73508 | 46.54967 | 39906 ft | 429 kts | 229° |
| 2026-04-21 15:52 | 50.69514 | 46.47981 | 39906 ft | 429 kts | 229° |
| 2026-04-21 15:52 | 50.65511 | 46.41004 | 39906 ft | 429 kts | 229° |
| 2026-04-21 15:53 | 50.61509 | 46.34044 | 39908 ft | 428 kts | 229° |
| 2026-04-21 15:53 | 50.57506 | 46.27094 | 39908 ft | 428 kts | 229° |
| 2026-04-21 15:54 | 50.53550 | 46.20092 | 39911 ft | 428 kts | 229° |
| 2026-04-21 15:54 | 50.49622 | 46.13063 | 39914 ft | 428 kts | 229° |
| 2026-04-21 15:55 | 50.45702 | 46.06064 | 39914 ft | 427 kts | 229° |
| 2026-04-21 15:55 | 50.41828 | 45.99184 | 39914 ft | 427 kts | 229° |
| 2026-04-21 15:56 | 50.37886 | 45.92212 | 39918 ft | 428 kts | 229° |
| 2026-04-21 15:56 | 50.33958 | 45.85288 | 39916 ft | 428 kts | 229° |
| 2026-04-21 15:57 | 50.30000 | 45.78325 | 39919 ft | 428 kts | 229° |
| 2026-04-21 15:57 | 50.26043 | 45.71372 | 39916 ft | 428 kts | 229° |
| 2026-04-21 15:58 | 50.22078 | 45.64429 | 39914 ft | 428 kts | 229° |
| 2026-04-21 15:58 | 50.18112 | 45.57509 | 39914 ft | 428 kts | 229° |
| 2026-04-21 15:59 | 50.14139 | 45.50594 | 39923 ft | 428 kts | 229° |
| 2026-04-21 15:59 | 50.10161 | 45.43691 | 39926 ft | 428 kts | 229° |
| 2026-04-21 16:00 | 50.06174 | 45.36794 | 39925 ft | 428 kts | 229° |
| 2026-04-21 16:00 | 50.02224 | 45.29866 | 39924 ft | 428 kts | 232° |
| 2026-04-21 16:01 | 49.98670 | 45.22438 | 39926 ft | 429 kts | 234° |
| 2026-04-21 16:01 | 49.95216 | 45.14913 | 39932 ft | 427 kts | 234° |
| 2026-04-21 16:02 | 49.91783 | 45.07394 | 39934 ft | 427 kts | 234° |
| 2026-04-21 16:02 | 49.88337 | 44.99889 | 39933 ft | 427 kts | 234° |
| 2026-04-21 16:03 | 49.84876 | 44.92386 | 39933 ft | 428 kts | 234° |
| 2026-04-21 16:03 | 49.81408 | 44.84901 | 39935 ft | 428 kts | 234° |
| 2026-04-21 16:04 | 49.77935 | 44.77420 | 39934 ft | 428 kts | 234° |
| 2026-04-21 16:04 | 49.74460 | 44.69956 | 39933 ft | 428 kts | 234° |
| 2026-04-21 16:05 | 49.70974 | 44.62490 | 39932 ft | 429 kts | 234° |
| 2026-04-21 16:05 | 49.67475 | 44.55022 | 39935 ft | 429 kts | 234° |
| 2026-04-21 16:06 | 49.63997 | 44.47613 | 39935 ft | 429 kts | 234° |
| 2026-04-21 16:06 | 49.60468 | 44.40119 | 39936 ft | 429 kts | 234° |
| 2026-04-21 16:07 | 49.56982 | 44.32735 | 39933 ft | 429 kts | 234° |
| 2026-04-21 16:07 | 49.53438 | 44.25267 | 39936 ft | 429 kts | 234° |
| 2026-04-21 16:08 | 49.48167 | 44.14212 | 39932 ft | 429 kts | 234° |
| 2026-04-21 16:09 | 49.44634 | 44.06820 | 39933 ft | 429 kts | 234° |
| 2026-04-21 16:09 | 49.41094 | 43.99439 | 39935 ft | 429 kts | 234° |
| 2026-04-21 16:10 | 49.37547 | 43.92062 | 39935 ft | 429 kts | 233° |
| 2026-04-21 16:10 | 49.33996 | 43.84693 | 39935 ft | 429 kts | 233° |
| 2026-04-21 16:11 | 49.30445 | 43.77345 | 39934 ft | 429 kts | 233° |
| 2026-04-21 16:11 | 49.27491 | 43.71250 | 39933 ft | 429 kts | 233° |
| 2026-04-21 16:12 | 49.23966 | 43.63881 | 39933 ft | 429 kts | 234° |
| 2026-04-21 16:12 | 49.20497 | 43.56439 | 39934 ft | 430 kts | 234° |
| 2026-04-21 16:13 | 49.17031 | 43.48990 | 39934 ft | 430 kts | 234° |
| 2026-04-21 16:13 | 49.13554 | 43.41558 | 39907 ft | 430 kts | 234° |
| 2026-04-21 16:14 | 49.10068 | 43.34144 | 39905 ft | 430 kts | 234° |
| 2026-04-21 16:14 | 49.06580 | 43.26749 | 39908 ft | 430 kts | 234° |
| 2026-04-21 16:15 | 49.03083 | 43.19360 | 39906 ft | 430 kts | 234° |
| 2026-04-21 16:15 | 48.99582 | 43.11979 | 39906 ft | 430 kts | 234° |
| 2026-04-21 16:16 | 48.96069 | 43.04594 | 39907 ft | 431 kts | 234° |
| 2026-04-21 16:16 | 48.92551 | 42.97216 | 39909 ft | 431 kts | 234° |
| 2026-04-21 16:17 | 48.89029 | 42.89853 | 39908 ft | 430 kts | 234° |
| 2026-04-21 16:17 | 48.85504 | 42.82504 | 39907 ft | 430 kts | 234° |
| 2026-04-21 16:18 | 48.81974 | 42.75162 | 39908 ft | 431 kts | 234° |
| 2026-04-21 16:18 | 48.78443 | 42.67835 | 39906 ft | 431 kts | 234° |
| 2026-04-21 16:19 | 48.74882 | 42.60535 | 39906 ft | 431 kts | 233° |
| 2026-04-21 16:19 | 48.71274 | 42.53289 | 39906 ft | 431 kts | 233° |
| 2026-04-21 16:20 | 48.67657 | 42.46063 | 39906 ft | 430 kts | 233° |
| 2026-04-21 16:20 | 48.64039 | 42.38847 | 39906 ft | 431 kts | 233° |
| 2026-04-21 16:21 | 48.60416 | 42.31637 | 39907 ft | 431 kts | 233° |
| 2026-04-21 16:21 | 48.56814 | 42.24496 | 39905 ft | 430 kts | 233° |
| 2026-04-21 16:22 | 48.53187 | 42.17324 | 39906 ft | 430 kts | 233° |
| 2026-04-21 16:22 | 48.49557 | 42.10164 | 39906 ft | 429 kts | 233° |
| 2026-04-21 16:23 | 48.45925 | 42.03023 | 39907 ft | 429 kts | 232° |
| 2026-04-21 16:23 | 48.42287 | 41.95887 | 39907 ft | 429 kts | 232° |
| 2026-04-21 16:24 | 48.38644 | 41.88761 | 39906 ft | 430 kts | 232° |
| 2026-04-21 16:24 | 48.34994 | 41.81641 | 39905 ft | 429 kts | 232° |
| 2026-04-21 16:25 | 48.31235 | 41.74662 | 39905 ft | 430 kts | 230° |
| 2026-04-21 16:25 | 48.27375 | 41.67820 | 39897 ft | 430 kts | 230° |
| 2026-04-21 16:26 | 48.23504 | 41.60985 | 39897 ft | 430 kts | 230° |
| 2026-04-21 16:26 | 48.19640 | 41.54140 | 39896 ft | 430 kts | 230° |
| 2026-04-21 16:27 | 48.15776 | 41.47299 | 39889 ft | 430 kts | 230° |
| 2026-04-21 16:27 | 48.11908 | 41.40461 | 39889 ft | 430 kts | 230° |
| 2026-04-21 16:28 | 48.08036 | 41.33628 | 39888 ft | 431 kts | 230° |
| 2026-04-21 16:28 | 48.04397 | 41.27215 | 39889 ft | 431 kts | 230° |
| 2026-04-21 16:29 | 48.00542 | 41.20446 | 39888 ft | 431 kts | 230° |
| 2026-04-21 16:29 | 47.96650 | 41.13634 | 39888 ft | 431 kts | 230° |
| 2026-04-21 16:30 | 47.92758 | 41.06843 | 39888 ft | 430 kts | 230° |
| 2026-04-21 16:30 | 47.88867 | 41.00064 | 39887 ft | 431 kts | 230° |
| 2026-04-21 16:31 | 47.84971 | 40.93291 | 39888 ft | 430 kts | 230° |
| 2026-04-21 16:31 | 47.81069 | 40.86534 | 39888 ft | 430 kts | 230° |
| 2026-04-21 16:32 | 47.77166 | 40.79795 | 39888 ft | 430 kts | 230° |
| 2026-04-21 16:32 | 47.73263 | 40.73061 | 39888 ft | 430 kts | 230° |
| 2026-04-21 16:33 | 47.69352 | 40.66335 | 39887 ft | 430 kts | 230° |
| 2026-04-21 16:33 | 47.65432 | 40.59610 | 39887 ft | 430 kts | 230° |
| 2026-04-21 16:34 | 47.61514 | 40.52905 | 39888 ft | 430 kts | 230° |
| 2026-04-21 16:34 | 47.57587 | 40.46204 | 39887 ft | 431 kts | 229° |
| 2026-04-21 16:35 | 47.53678 | 40.39548 | 39888 ft | 431 kts | 229° |
| 2026-04-21 16:35 | 47.49742 | 40.32861 | 39765 ft | 428 kts | 229° |
| 2026-04-21 16:35 | 47.47800 | 40.29570 | 39515 ft | 421 kts | 229° |
| 2026-04-21 16:36 | 47.45890 | 40.26341 | 39259 ft | 414 kts | 229° |
| 2026-04-21 16:36 | 47.44007 | 40.23156 | 39012 ft | 410 kts | 229° |
| 2026-04-21 16:36 | 47.42134 | 40.19990 | 38896 ft | 409 kts | 229° |
| 2026-04-21 16:37 | 47.38386 | 40.13668 | 38887 ft | 409 kts | 229° |
| 2026-04-21 16:37 | 47.34635 | 40.07357 | 38611 ft | 408 kts | 229° |
| 2026-04-21 16:37 | 47.32764 | 40.04213 | 38367 ft | 408 kts | 229° |
| 2026-04-21 16:38 | 47.30893 | 40.01074 | 38117 ft | 407 kts | 229° |
| 2026-04-21 16:38 | 47.29026 | 39.97947 | 37870 ft | 407 kts | 229° |
| 2026-04-21 16:38 | 47.27158 | 39.94820 | 37624 ft | 406 kts | 229° |
| 2026-04-21 16:38 | 47.25296 | 39.91706 | 37376 ft | 405 kts | 229° |
| 2026-04-21 16:39 | 47.23437 | 39.88604 | 37125 ft | 403 kts | 229° |
| 2026-04-21 16:39 | 47.21585 | 39.85515 | 36875 ft | 402 kts | 229° |
| 2026-04-21 16:39 | 47.19659 | 39.82533 | 36628 ft | 401 kts | 224° |
| 2026-04-21 16:39 | 47.17603 | 39.79763 | 36379 ft | 401 kts | 223° |
| 2026-04-21 16:40 | 47.15517 | 39.77040 | 36120 ft | 402 kts | 223° |
| 2026-04-21 16:40 | 47.13401 | 39.74331 | 35881 ft | 405 kts | 223° |
| 2026-04-21 16:40 | 47.11262 | 39.71622 | 35645 ft | 407 kts | 222° |
| 2026-04-21 16:40 | 47.09112 | 39.68911 | 35385 ft | 407 kts | 223° |
| 2026-04-21 16:41 | 47.07694 | 39.67123 | 35221 ft | 407 kts | 223° |
| 2026-04-21 16:41 | 47.04828 | 39.63507 | 34888 ft | 406 kts | 223° |
| 2026-04-21 16:41 | 47.02692 | 39.60807 | 34639 ft | 404 kts | 223° |
| 2026-04-21 16:41 | 47.00563 | 39.58117 | 34392 ft | 404 kts | 223° |
| 2026-04-21 16:42 | 46.99223 | 39.56427 | 34243 ft | 404 kts | 223° |
| 2026-04-21 16:42 | 46.97031 | 39.53664 | 33981 ft | 403 kts | 223° |
| 2026-04-21 16:42 | 46.94911 | 39.50995 | 33723 ft | 402 kts | 223° |
| 2026-04-21 16:42 | 46.92791 | 39.48328 | 33481 ft | 401 kts | 223° |
| 2026-04-21 16:43 | 46.90678 | 39.45670 | 33232 ft | 401 kts | 223° |
| 2026-04-21 16:43 | 46.88563 | 39.43014 | 32981 ft | 401 kts | 223° |
| 2026-04-21 16:43 | 46.86654 | 39.40618 | 32758 ft | 400 kts | 223° |
| 2026-04-21 16:43 | 46.84625 | 39.38076 | 32521 ft | 399 kts | 223° |
| 2026-04-21 16:44 | 46.82522 | 39.35442 | 32270 ft | 398 kts | 222° |
| 2026-04-21 16:44 | 46.80421 | 39.32812 | 32020 ft | 398 kts | 222° |
| 2026-04-21 16:44 | 46.78313 | 39.30179 | 31774 ft | 398 kts | 222° |
| 2026-04-21 16:44 | 46.76212 | 39.27558 | 31526 ft | 398 kts | 222° |
| 2026-04-21 16:45 | 46.74112 | 39.24940 | 31274 ft | 397 kts | 222° |
| 2026-04-21 16:45 | 46.72011 | 39.22325 | 31024 ft | 396 kts | 222° |
| 2026-04-21 16:45 | 46.69923 | 39.19728 | 30773 ft | 394 kts | 221° |
| 2026-04-21 16:45 | 46.67846 | 39.17149 | 30520 ft | 392 kts | 221° |
| 2026-04-21 16:46 | 46.65780 | 39.14585 | 30277 ft | 389 kts | 221° |
| 2026-04-21 16:46 | 46.63723 | 39.12037 | 30031 ft | 387 kts | 221° |
| 2026-04-21 16:46 | 46.61680 | 39.09505 | 29775 ft | 385 kts | 221° |
| 2026-04-21 16:46 | 46.59650 | 39.06990 | 29522 ft | 383 kts | 221° |
| 2026-04-21 16:47 | 46.57620 | 39.04477 | 29273 ft | 382 kts | 221° |
| 2026-04-21 16:47 | 46.55601 | 39.01984 | 29021 ft | 381 kts | 221° |
| 2026-04-21 16:47 | 46.53551 | 38.99549 | 28768 ft | 380 kts | 220° |
| 2026-04-21 16:47 | 46.51465 | 38.97186 | 28523 ft | 380 kts | 219° |
| 2026-04-21 16:48 | 46.49370 | 38.94867 | 28281 ft | 378 kts | 218° |
| 2026-04-21 16:48 | 46.47272 | 38.92566 | 28029 ft | 378 kts | 218° |
| 2026-04-21 16:48 | 46.45177 | 38.90271 | 27767 ft | 376 kts | 218° |
| 2026-04-21 16:48 | 46.43096 | 38.87985 | 27522 ft | 375 kts | 219° |
| 2026-04-21 16:49 | 46.41024 | 38.85702 | 27269 ft | 374 kts | 219° |
| 2026-04-21 16:49 | 46.38956 | 38.83421 | 27022 ft | 373 kts | 219° |
| 2026-04-21 16:49 | 46.37328 | 38.81624 | 26826 ft | 372 kts | 219° |
| 2026-04-21 16:49 | 46.35276 | 38.79358 | 26575 ft | 370 kts | 219° |
| 2026-04-21 16:50 | 46.33228 | 38.77101 | 26319 ft | 369 kts | 219° |
| 2026-04-21 16:50 | 46.31188 | 38.74853 | 26075 ft | 369 kts | 219° |
| 2026-04-21 16:50 | 46.29150 | 38.72607 | 25828 ft | 367 kts | 219° |
| 2026-04-21 16:50 | 46.27123 | 38.70376 | 25575 ft | 366 kts | 219° |
| 2026-04-21 16:51 | 46.25104 | 38.68154 | 25326 ft | 365 kts | 219° |
| 2026-04-21 16:51 | 46.23085 | 38.65936 | 25074 ft | 364 kts | 218° |
| 2026-04-21 16:51 | 46.21071 | 38.63729 | 24823 ft | 362 kts | 218° |
| 2026-04-21 16:51 | 46.19180 | 38.61658 | 24587 ft | 361 kts | 218° |
| 2026-04-21 16:52 | 46.17212 | 38.59504 | 24340 ft | 359 kts | 218° |
| 2026-04-21 16:52 | 46.15223 | 38.57328 | 24094 ft | 359 kts | 218° |
| 2026-04-21 16:52 | 46.13880 | 38.55859 | 23921 ft | 358 kts | 218° |
| 2026-04-21 16:52 | 46.11255 | 38.52992 | 23584 ft | 357 kts | 218° |
| 2026-04-21 16:53 | 46.09273 | 38.50837 | 23338 ft | 356 kts | 218° |
| 2026-04-21 16:53 | 46.07302 | 38.48688 | 23086 ft | 356 kts | 218° |
| 2026-04-21 16:53 | 46.05311 | 38.46515 | 22833 ft | 353 kts | 218° |
| 2026-04-21 16:53 | 46.03386 | 38.44416 | 22586 ft | 351 kts | 218° |
| 2026-04-21 16:54 | 46.01413 | 38.42268 | 22340 ft | 350 kts | 218° |
| 2026-04-21 16:54 | 45.99497 | 38.40202 | 22094 ft | 347 kts | 218° |
| 2026-04-21 16:54 | 45.97590 | 38.38146 | 21746 ft | 337 kts | 218° |
| 2026-04-21 16:54 | 45.95713 | 38.36081 | 21253 ft | 332 kts | 219° |
| 2026-04-21 16:55 | 45.93887 | 38.34077 | 20768 ft | 331 kts | 219° |
| 2026-04-21 16:55 | 45.92062 | 38.32090 | 20276 ft | 327 kts | 218° |
| 2026-04-21 16:55 | 45.90253 | 38.30145 | 19796 ft | 325 kts | 218° |
| 2026-04-21 16:55 | 45.88444 | 38.28217 | 19311 ft | 324 kts | 218° |
| 2026-04-21 16:56 | 45.86629 | 38.26294 | 18833 ft | 324 kts | 218° |
| 2026-04-21 16:56 | 45.84835 | 38.24369 | 18338 ft | 320 kts | 219° |
| 2026-04-21 16:56 | 45.83656 | 38.23100 | 18008 ft | 319 kts | 218° |
| 2026-04-21 16:56 | 45.81891 | 38.21206 | 17548 ft | 317 kts | 219° |
| 2026-04-21 16:57 | 45.79579 | 38.18706 | 16912 ft | 313 kts | 219° |
| 2026-04-21 16:57 | 45.77846 | 38.16831 | 16436 ft | 311 kts | 219° |
| 2026-04-21 16:57 | 45.76121 | 38.14972 | 15961 ft | 310 kts | 219° |
| 2026-04-21 16:57 | 45.74404 | 38.13128 | 15491 ft | 308 kts | 219° |
| 2026-04-21 16:58 | 45.72696 | 38.11293 | 15015 ft | 307 kts | 219° |
| 2026-04-21 16:58 | 45.71545 | 38.10058 | 14683 ft | 306 kts | 220° |
| 2026-04-21 16:58 | 45.69844 | 38.08232 | 14202 ft | 305 kts | 220° |
| 2026-04-21 16:58 | 45.68151 | 38.06421 | 13737 ft | 303 kts | 220° |
| 2026-04-21 16:59 | 45.66466 | 38.04618 | 13273 ft | 302 kts | 220° |
| 2026-04-21 16:59 | 45.64811 | 38.02850 | 12813 ft | 300 kts | 220° |
| 2026-04-21 16:59 | 45.63121 | 38.01049 | 12344 ft | 298 kts | 220° |
| 2026-04-21 16:59 | 45.61464 | 37.99284 | 11884 ft | 296 kts | 220° |
| 2026-04-21 17:00 | 45.59817 | 37.97529 | 11436 ft | 294 kts | 220° |
| 2026-04-21 17:00 | 45.58204 | 37.95811 | 10985 ft | 292 kts | 220° |
| 2026-04-21 17:00 | 45.57105 | 37.94642 | 10666 ft | 291 kts | 220° |
| 2026-04-21 17:00 | 45.54980 | 37.92382 | 10282 ft | 280 kts | 219° |
| 2026-04-21 17:01 | 45.53457 | 37.90768 | 10203 ft | 265 kts | 219° |
| 2026-04-21 17:01 | 45.52015 | 37.89244 | 10122 ft | 253 kts | 219° |
| 2026-04-21 17:01 | 45.50625 | 37.87775 | 9938 ft | 246 kts | 219° |
| 2026-04-21 17:01 | 45.49250 | 37.86313 | 9561 ft | 248 kts | 219° |
| 2026-04-21 17:02 | 45.47864 | 37.84839 | 9211 ft | 249 kts | 218° |
| 2026-04-21 17:02 | 45.46480 | 37.83367 | 8871 ft | 247 kts | 218° |
| 2026-04-21 17:02 | 45.45105 | 37.81909 | 8533 ft | 247 kts | 218° |
| 2026-04-21 17:02 | 45.43713 | 37.80478 | 8185 ft | 246 kts | 216° |
| 2026-04-21 17:03 | 45.42304 | 37.79108 | 7872 ft | 245 kts | 214° |
| 2026-04-21 17:03 | 45.40894 | 37.77758 | 7537 ft | 244 kts | 214° |
| 2026-04-21 17:03 | 45.39485 | 37.76415 | 7200 ft | 243 kts | 214° |
| 2026-04-21 17:03 | 45.38083 | 37.75080 | 6861 ft | 242 kts | 214° |
| 2026-04-21 17:04 | 45.36687 | 37.73749 | 6525 ft | 241 kts | 214° |
| 2026-04-21 17:04 | 45.35296 | 37.72429 | 6191 ft | 240 kts | 214° |
| 2026-04-21 17:04 | 45.33911 | 37.71113 | 5851 ft | 239 kts | 213° |
| 2026-04-21 17:04 | 45.32531 | 37.69803 | 5515 ft | 238 kts | 213° |
| 2026-04-21 17:05 | 45.31153 | 37.68495 | 5183 ft | 238 kts | 213° |
| 2026-04-21 17:05 | 45.29778 | 37.67192 | 4887 ft | 236 kts | 213° |
| 2026-04-21 17:05 | 45.28420 | 37.65905 | 4620 ft | 234 kts | 213° |
| 2026-04-21 17:05 | 45.27071 | 37.64631 | 4296 ft | 233 kts | 213° |
| 2026-04-21 17:06 | 45.25726 | 37.63358 | 3963 ft | 232 kts | 213° |
| 2026-04-21 17:06 | 45.24387 | 37.62088 | 3631 ft | 231 kts | 213° |
| 2026-04-21 17:06 | 45.23050 | 37.60822 | 3305 ft | 231 kts | 212° |
| 2026-04-21 17:06 | 45.21723 | 37.59567 | 3045 ft | 226 kts | 212° |
| 2026-04-21 17:07 | 45.20442 | 37.58356 | 2900 ft | 216 kts | 212° |
| 2026-04-21 17:07 | 45.19219 | 37.57200 | 2806 ft | 207 kts | 212° |
| 2026-04-21 17:07 | 45.18047 | 37.56091 | 2709 ft | 198 kts | 212° |
| 2026-04-21 17:07 | 45.16936 | 37.55030 | 2631 ft | 187 kts | 212° |
| 2026-04-21 17:08 | 45.15904 | 37.54006 | 2519 ft | 176 kts | 213° |
| 2026-04-21 17:08 | 45.14961 | 37.53036 | 2501 ft | 162 kts | 214° |
| 2026-04-21 17:08 | 45.14095 | 37.52111 | 2496 ft | 146 kts | 215° |
| 2026-04-21 17:08 | 45.13338 | 37.51281 | 2484 ft | 133 kts | 215° |
| 2026-04-21 17:09 | 45.12044 | 37.49809 | 2493 ft | 114 kts | 216° |
| 2026-04-21 17:09 | 45.11433 | 37.49093 | 2342 ft | 114 kts | 217° |
| 2026-04-21 17:09 | 45.10826 | 37.48368 | 2231 ft | 116 kts | 217° |
| 2026-04-21 17:10 | 45.10200 | 37.47607 | 2216 ft | 121 kts | 217° |
| 2026-04-21 17:10 | 45.09568 | 37.46823 | 2207 ft | 121 kts | 218° |
| 2026-04-21 17:10 | 45.08939 | 37.46022 | 2201 ft | 122 kts | 219° |
| 2026-04-21 17:10 | 45.08316 | 37.45205 | 2203 ft | 122 kts | 219° |
| 2026-04-21 17:11 | 45.07712 | 37.44412 | 2094 ft | 116 kts | 219° |
| 2026-04-21 17:11 | 45.07115 | 37.43633 | 1849 ft | 118 kts | 218° |
| 2026-04-21 17:11 | 45.06509 | 37.42829 | 1792 ft | 122 kts | 223° |
| 2026-04-21 17:11 | 45.05927 | 37.41939 | 1677 ft | 124 kts | 223° |
| 2026-04-21 17:12 | 45.05312 | 37.41096 | 1441 ft | 124 kts | 218° |
| 2026-04-21 17:12 | 45.04663 | 37.40296 | 1162 ft | 123 kts | 218° |
| 2026-04-21 17:12 | 45.04021 | 37.39525 | 963 ft | 119 kts | 217° |
| 2026-04-21 17:12 | 45.03392 | 37.38783 | 774 ft | 118 kts | 221° |
| 2026-04-21 17:13 | 45.02788 | 37.38002 | 543 ft | 117 kts | 221° |
| 2026-04-21 17:13 | 45.02175 | 37.37228 | 388 ft | 119 kts | 219° |
| 2026-04-21 17:13 | 45.01550 | 37.36454 | 307 ft | 120 kts | 221° |
| 2026-04-21 17:13 | 45.00929 | 37.35658 | 194 ft | 118 kts | 222° |
| 2026-04-21 17:14 | 45.00429 | 37.35010 | 177 ft | 70 kts | 222° |
| 2026-04-21 17:14 | 45.00099 | 37.34588 | 175 ft | 59 kts | 222° |
| 2026-04-21 17:14 | 44.99808 | 37.34220 | 177 ft | 54 kts | 222° |
| 2026-04-21 17:14 | 44.99548 | 37.33887 | 176 ft | 35 kts | 223° |
| 2026-04-21 17:15 | 44.99433 | 37.33665 | 176 ft | 23 kts | 284° |
| 2026-04-21 17:15 | 44.99514 | 37.33592 | 184 ft | 12 kts | 340° |
| 2026-04-21 17:15 | 44.99586 | 37.33616 | 188 ft | 12 kts | 35° |
| 2026-04-21 17:15 | 44.99659 | 37.33704 | 187 ft | 15 kts | 41° |
| 2026-04-21 17:16 | 44.99742 | 37.33810 | 184 ft | 11 kts | 42° |
| 2026-04-21 17:16 | 44.99747 | 37.33816 | 184 ft | 0 kts | 42° |
| 2026-04-21 17:19 | 44.99804 | 37.33889 | 189 ft | 16 kts | 41° |
| 2026-04-21 17:19 | 44.99885 | 37.33991 | 194 ft | 16 kts | 42° |
| 2026-04-21 17:20 | 44.99965 | 37.34094 | 187 ft | 16 kts | 43° |
| 2026-04-21 17:20 | 45.00043 | 37.34199 | 184 ft | 16 kts | 43° |
| 2026-04-21 17:20 | 45.00122 | 37.34303 | 184 ft | 16 kts | 43° |
| 2026-04-21 17:20 | 45.00202 | 37.34406 | 190 ft | 16 kts | 42° |
| 2026-04-21 17:21 | 45.00276 | 37.34498 | 188 ft | 16 kts | 41° |
| 2026-04-21 17:21 | 45.00321 | 37.34552 | 184 ft | 8 kts | 39° |
| 2026-04-21 17:21 | 45.00367 | 37.34590 | 188 ft | 8 kts | 14° |
| 2026-04-21 17:21 | 45.00410 | 37.34588 | 185 ft | 9 kts | 15° |
| 2026-04-21 17:22 | 45.00447 | 37.34616 | 183 ft | 9 kts | 38° |
| 2026-04-21 17:22 | 45.00503 | 37.34676 | 182 ft | 6 kts | 349° |
| 2026-04-21 17:22 | 45.00528 | 37.34620 | 193 ft | 8 kts | 261° |
| 2026-04-21 17:22 | 45.00498 | 37.34565 | 182 ft | 4 kts | 224° |
| 2026-04-21 17:23 | 45.00496 | 37.34562 | 190 ft | 0 kts | 224° |